Time;durP1;ratioP1;P1;durP2;ratioP2;P2;SDS_P1;SDS_P2;PMS_P1;PMS_P2;Temp;Humidity;BMP_temperature;BMP_pressure;BME280_temperature;BME280_humidity;BME280_pressure;Samples;Min_cycle;Max_cycle;Signal;HPM_P1;HPM_P2
2022/01/24 07:27:34;;;;;;;;;42.25;33.25;;;;;;;;4986140;22;45363;-94
2022/01/24 07:30:01;;;;;;;;;42.75;34.75;;;;;;;;4954110;28;47979;-95
2022/01/24 07:32:26;;;;;;;;;34.50;31.00;;;;;;;;4956322;28;45391;-93
2022/01/24 07:34:52;;;;;;;;;36.75;30.50;;;;;;;;4966822;28;45320;-93
2022/01/24 07:37:18;;;;;;;;;41.50;34.50;;;;;;;;4964051;28;45579;-96
2022/01/24 07:39:44;;;;;;;;;42.50;35.00;;;;;;;;4953283;28;46881;-96
2022/01/24 07:42:28;;;;;;;;;43.50;33.25;;;;;;;;4971256;28;45452;-96
2022/01/24 07:44:53;;;;;;;;;38.25;32.25;;;;;;;;4979188;28;45393;-96
2022/01/24 07:47:19;;;;;;;;;38.00;31.00;;;;;;;;4962082;28;45405;-96
2022/01/24 07:49:44;;;;;;;;;39.75;32.75;;;;;;;;4972740;28;46487;-96
2022/01/24 07:52:09;;;;;;;;;40.25;36.25;;;;;;;;4963790;28;45580;-96
2022/01/24 07:54:34;;;;;;;;;34.50;32.50;;;;;;;;4971484;28;44765;-95
2022/01/24 07:56:59;;;;;;;;;37.25;33.50;;;;;;;;4983173;28;45864;-96
2022/01/24 07:59:25;;;;;;;;;47.00;40.50;;;;;;;;4963958;28;47814;-95
2022/01/24 08:01:50;;;;;;;;;49.00;36.75;;;;;;;;4959761;28;45336;-94
2022/01/24 08:04:16;;;;;;;;;39.00;30.00;;;;;;;;4971695;28;45566;-96
2022/01/24 08:06:41;;;;;;;;;43.75;34.50;;;;;;;;4960551;28;46187;-96
2022/01/24 08:09:09;;;;;;;;;35.25;33.75;;;;;;;;4978977;28;45531;-96
2022/01/24 08:11:34;;;;;;;;;38.75;37.50;;;;;;;;4962309;28;45427;-96
2022/01/24 08:13:59;;;;;;;;;43.75;38.50;;;;;;;;4958004;28;45514;-96
2022/01/24 08:16:25;;;;;;;;;39.75;33.25;;;;;;;;4960977;28;45345;-95
2022/01/24 08:18:52;;;;;;;;;35.50;35.25;;;;;;;;4962348;28;47575;-94
2022/01/24 08:21:18;;;;;;;;;38.75;34.50;;;;;;;;4969602;28;45386;-96
2022/01/24 08:23:43;;;;;;;;;36.00;34.75;;;;;;;;4988950;28;45216;-96
2022/01/24 08:26:08;;;;;;;;;45.25;40.75;;;;;;;;4967514;28;45627;-96
2022/01/24 08:28:35;;;;;;;;;48.75;38.00;;;;;;;;4966790;28;47094;-96
2022/01/24 08:31:01;;;;;;;;;36.00;34.00;;;;;;;;4970568;28;45364;-96
2022/01/24 08:33:26;;;;;;;;;40.00;35.00;;;;;;;;4990164;28;45273;-95
2022/01/24 08:35:52;;;;;;;;;44.75;36.50;;;;;;;;4974596;28;45198;-93
2022/01/24 08:38:17;;;;;;;;;44.00;36.50;;;;;;;;4968828;28;47037;-94
2022/01/24 08:40:45;;;;;;;;;47.00;40.00;;;;;;;;4971505;28;45172;-95
2022/01/24 08:43:11;;;;;;;;;37.00;29.75;;;;;;;;4969822;28;45240;-96
2022/01/24 08:45:58;;;;;;;;;34.50;32.00;;;;;;;;4977578;28;45354;-96
2022/01/24 08:48:24;;;;;;;;;41.50;34.50;;;;;;;;4952970;28;46261;-95
2022/01/24 08:50:51;;;;;;;;;40.00;35.00;;;;;;;;4982315;28;45342;-95
2022/01/24 08:53:16;;;;;;;;;40.00;30.50;;;;;;;;4962085;28;45609;-96
2022/01/24 08:55:43;;;;;;;;;35.00;30.50;;;;;;;;4966421;28;45549;-96
2022/01/24 08:58:11;;;;;;;;;41.25;36.75;;;;;;;;4959875;28;48093;-96
2022/01/24 09:00:36;;;;;;;;;40.00;37.50;;;;;;;;4970623;28;45511;-96
2022/01/24 09:03:02;;;;;;;;;45.75;37.75;;;;;;;;4946616;28;45466;-96
2022/01/24 09:05:34;;;;;;;;;37.00;34.50;;;;;;;;4952030;28;45646;-96
2022/01/24 09:07:59;;;;;;;;;52.75;41.75;;;;;;;;4954875;28;47688;-96
2022/01/24 09:10:24;;;;;;;;;50.00;36.50;;;;;;;;4963073;28;45172;-96
2022/01/24 09:12:50;;;;;;;;;52.00;39.75;;;;;;;;4965940;28;45304;-96
2022/01/24 09:15:15;;;;;;;;;40.00;35.50;;;;;;;;4964270;28;45576;-96
2022/01/24 09:17:42;;;;;;;;;45.75;38.50;;;;;;;;4964517;28;47195;-96
2022/01/24 09:20:08;;;;;;;;;42.75;35.75;;;;;;;;4972509;28;45370;-96
2022/01/24 09:22:38;;;;;;;;;35.50;32.00;;;;;;;;4973451;28;44915;-96
2022/01/24 09:25:05;;;;;;;;;50.50;39.50;;;;;;;;4974374;28;45440;-96
2022/01/24 09:27:30;;;;;;;;;49.50;40.25;;;;;;;;4963248;28;47265;-96
2022/01/24 09:29:56;;;;;;;;;45.25;40.00;;;;;;;;4961199;28;46217;-96
2022/01/24 09:32:27;;;;;;;;;41.50;35.50;;;;;;;;4958101;28;45406;-96
2022/01/24 09:34:53;;;;;;;;;46.25;38.25;;;;;;;;4945290;28;45385;-96
2022/01/24 09:37:18;;;;;;;;;43.75;35.75;;;;;;;;4959743;28;48116;-96
2022/01/24 09:39:43;;;;;;;;;39.50;33.25;;;;;;;;4959159;28;45487;-96
2022/01/24 09:42:09;;;;;;;;;46.50;39.00;;;;;;;;4958316;28;45657;-96
2022/01/24 09:44:35;;;;;;;;;48.00;36.50;;;;;;;;4951414;28;45446;-96
2022/01/24 09:47:00;;;;;;;;;48.00;40.75;;;;;;;;4958353;28;47039;-96
2022/01/24 09:49:25;;;;;;;;;50.00;37.75;;;;;;;;4955807;28;45387;-96
2022/01/24 09:51:51;;;;;;;;;44.50;34.75;;;;;;;;4958898;28;45418;-96
2022/01/24 09:54:16;;;;;;;;;55.25;40.50;;;;;;;;4954479;28;45545;-96
2022/01/24 09:56:42;;;;;;;;;56.50;42.25;;;;;;;;4963139;28;47111;-96
2022/01/24 09:59:09;;;;;;;;;42.75;38.00;;;;;;;;4950339;28;45550;-96
2022/01/24 10:01:35;;;;;;;;;47.25;38.50;;;;;;;;4965117;28;45412;-96
2022/01/24 10:04:17;;;;;;;;;41.50;38.25;;;;;;;;4994965;28;44962;-95
2022/01/24 10:07:01;;;;;;;;;45.75;40.50;;;;;;;;4958530;28;47269;-96
2022/01/24 10:09:32;;;;;;;;;47.75;39.50;;;;;;;;4978471;28;45401;-96
2022/01/24 10:12:08;;;;;;;;;53.00;42.25;;;;;;;;5084187;23;46701;-95
2022/01/24 10:17:22;;;;;;;;;46.00;37.00;;;;;;;;4969889;28;45434;-96
2022/01/24 10:19:48;;;;;;;;;49.00;39.75;;;;;;;;4954547;28;45466;-96
2022/01/24 10:22:13;;;;;;;;;40.25;33.75;;;;;;;;4933638;28;45267;-96
2022/01/24 10:24:43;;;;;;;;;44.50;36.00;;;;;;;;4950883;28;45383;-96
2022/01/24 10:27:08;;;;;;;;;52.50;41.00;;;;;;;;4952959;28;46907;-96
2022/01/24 10:29:34;;;;;;;;;42.00;39.50;;;;;;;;4950246;28;45329;-96
2022/01/24 10:31:59;;;;;;;;;47.50;38.75;;;;;;;;4949848;28;45457;-96
2022/01/24 10:34:35;;;;;;;;;43.50;40.00;;;;;;;;4946458;28;45519;-96
2022/01/24 10:37:01;;;;;;;;;46.00;38.75;;;;;;;;4953527;28;48095;-95
2022/01/24 10:39:33;;;;;;;;;50.00;43.50;;;;;;;;4961347;28;45420;-96
2022/01/24 10:45:15;;;;;;;;;47.50;39.00;;;;;;;;4941246;28;45351;-95
2022/01/24 10:47:45;;;;;;;;;56.50;40.25;;;;;;;;4951170;28;47648;-94
2022/01/24 10:50:11;;;;;;;;;49.00;32.00;;;;;;;;4955679;28;45308;-96
2022/01/24 10:52:38;;;;;;;;;43.75;37.75;;;;;;;;4954320;28;45755;-96
2022/01/24 10:55:09;;;;;;;;;45.50;37.00;;;;;;;;4946469;28;45233;-96
2022/01/24 10:57:35;;;;;;;;;44.25;38.25;;;;;;;;4933709;28;47103;-91
2022/01/24 11:00:02;;;;;;;;;45.25;37.75;;;;;;;;4947593;28;45846;-94
2022/01/24 11:02:33;;;;;;;;;47.75;39.25;;;;;;;;4952755;28;45554;-96
2022/01/24 11:05:08;;;;;;;;;49.25;38.75;;;;;;;;4943407;28;45312;-95
2022/01/24 11:07:45;;;;;;;;;52.00;39.25;;;;;;;;4943776;28;47555;-95
2022/01/24 11:10:11;;;;;;;;;40.25;36.25;;;;;;;;4946991;28;45255;-96
2022/01/24 11:12:36;;;;;;;;;46.25;37.75;;;;;;;;4932785;28;45372;-96
2022/01/24 11:15:01;;;;;;;;;44.25;39.00;;;;;;;;4960690;28;45921;-96
2022/01/24 11:17:30;;;;;;;;;41.25;34.75;;;;;;;;4961451;28;48324;-96
2022/01/24 11:20:01;;;;;;;;;44.50;38.25;;;;;;;;4974444;28;45338;-96
2022/01/24 11:22:28;;;;;;;;;36.25;29.25;;;;;;;;4978326;28;44775;-96
2022/01/24 11:25:04;;;;;;;;;47.75;38.50;;;;;;;;4979783;28;44974;-96
2022/01/24 11:27:30;;;;;;;;;55.50;40.25;;;;;;;;4963552;28;47426;-96
2022/01/24 11:29:57;;;;;;;;;53.25;40.00;;;;;;;;4967924;28;45399;-94
2022/01/24 11:32:26;;;;;;;;;45.50;38.00;;;;;;;;4990850;28;45279;-96
2022/01/24 11:34:53;;;;;;;;;41.50;35.50;;;;;;;;4969773;28;45443;-96
2022/01/24 11:37:36;;;;;;;;;40.75;32.50;;;;;;;;4961619;28;46461;-96
2022/01/24 11:40:23;;;;;;;;;47.25;38.50;;;;;;;;4978382;28;45299;-95
2022/01/24 11:42:49;;;;;;;;;39.75;36.50;;;;;;;;4968990;28;45332;-96
2022/01/24 11:45:17;;;;;;;;;48.00;37.75;;;;;;;;4970285;28;45280;-92
2022/01/24 11:47:43;;;;;;;;;38.75;35.00;;;;;;;;4970849;28;47352;-96
2022/01/24 11:50:24;;;;;;;;;46.25;38.25;;;;;;;;4965077;28;44885;-92
2022/01/24 11:52:50;;;;;;;;;41.00;36.50;;;;;;;;4958854;28;45240;-95
2022/01/24 11:55:38;;;;;;;;;38.50;35.00;;;;;;;;4971989;28;44924;-96
2022/01/24 11:58:06;;;;;;;;;34.75;33.25;;;;;;;;4967759;28;47230;-95
2022/01/24 12:00:40;;;;;;;;;43.00;39.25;;;;;;;;4967738;28;45540;-95
2022/01/24 12:03:16;;;;;;;;;53.00;42.00;;;;;;;;4955152;28;45522;-95
2022/01/24 12:05:48;;;;;;;;;50.25;40.75;;;;;;;;4963141;28;45386;-91
2022/01/24 12:08:27;;;;;;;;;49.00;38.75;;;;;;;;4959786;28;47987;-92
2022/01/24 12:10:54;;;;;;;;;47.25;36.25;;;;;;;;4956107;28;46054;-94
2022/01/24 12:13:22;;;;;;;;;46.75;37.75;;;;;;;;4955817;28;45563;-92
2022/01/24 12:15:48;;;;;;;;;52.25;39.50;;;;;;;;4960455;28;45578;-93
2022/01/24 12:18:21;;;;;;;;;37.50;35.00;;;;;;;;4957091;28;47177;-93
2022/01/24 12:20:47;;;;;;;;;50.75;40.50;;;;;;;;4956911;28;45682;-92
2022/01/24 12:23:25;;;;;;;;;40.00;37.00;;;;;;;;4955390;28;45361;-90
2022/01/24 12:25:52;;;;;;;;;41.75;33.00;;;;;;;;4975787;28;45345;-89
2022/01/24 12:28:23;;;;;;;;;47.75;38.25;;;;;;;;4971058;28;45441;-91
2022/01/24 12:31:06;;;;;;;;;45.25;39.25;;;;;;;;4969710;28;45434;-90
2022/01/24 12:33:34;;;;;;;;;40.00;35.50;;;;;;;;4941811;28;45486;-91
2022/01/24 12:36:00;;;;;;;;;42.50;37.25;;;;;;;;4975921;28;45303;-92
2022/01/24 12:38:25;;;;;;;;;39.50;35.25;;;;;;;;4953396;28;47211;-93
2022/01/24 12:41:09;;;;;;;;;42.25;37.00;;;;;;;;4958854;28;51307;-92
2022/01/24 12:43:51;;;;;;;;;42.75;35.75;;;;;;;;4955835;28;45495;-91
2022/01/24 12:46:19;;;;;;;;;44.00;37.50;;;;;;;;4978535;28;45284;-92
2022/01/24 12:48:46;;;;;;;;;48.75;38.25;;;;;;;;4965390;28;47362;-93
2022/01/24 12:51:12;;;;;;;;;37.50;31.75;;;;;;;;4956924;28;45351;-95
2022/01/24 12:53:40;;;;;;;;;34.75;31.25;;;;;;;;4964489;28;45418;-95
2022/01/24 12:56:07;;;;;;;;;43.75;38.50;;;;;;;;4960462;28;45710;-92
2022/01/24 12:58:34;;;;;;;;;41.25;33.75;;;;;;;;4967575;28;46545;-93
2022/01/24 13:00:59;;;;;;;;;37.00;32.25;;;;;;;;4963614;28;44962;-93
2022/01/24 13:03:24;;;;;;;;;44.25;35.00;;;;;;;;4963515;28;45382;-92
2022/01/24 13:05:49;;;;;;;;;40.75;33.00;;;;;;;;4963442;28;45533;-92
2022/01/24 13:08:18;;;;;;;;;36.75;32.75;;;;;;;;4967638;28;47096;-93
2022/01/24 13:10:47;;;;;;;;;31.75;29.50;;;;;;;;4955584;28;45475;-93
2022/01/24 13:13:15;;;;;;;;;39.50;34.00;;;;;;;;4964672;28;45473;-93
2022/01/24 13:21:16;;;;;;;;;41.25;36.75;;;;;;;;4962700;28;45890;-93
2022/01/24 13:23:47;;;;;;;;;40.75;35.50;;;;;;;;4950061;28;45291;-94
2022/01/24 13:26:12;;;;;;;;;42.75;39.00;;;;;;;;4942155;28;44940;-93
2022/01/24 13:28:38;;;;;;;;;46.75;37.00;;;;;;;;4938933;28;47348;-93
2022/01/24 13:31:04;;;;;;;;;42.25;37.00;;;;;;;;4939135;28;45323;-93
2022/01/24 13:33:31;;;;;;;;;39.75;33.50;;;;;;;;4932279;28;45792;-93
2022/01/24 13:36:07;;;;;;;;;44.75;37.50;;;;;;;;4941341;28;45446;-93
2022/01/24 13:38:36;;;;;;;;;39.75;36.50;;;;;;;;4965276;28;46425;-93
2022/01/24 13:41:08;;;;;;;;;39.00;35.00;;;;;;;;4943053;28;45380;-93
2022/01/24 13:43:53;;;;;;;;;39.25;34.50;;;;;;;;4950018;28;45357;-92
2022/01/24 13:46:18;;;;;;;;;46.75;35.00;;;;;;;;4943813;28;45375;-92
2022/01/24 13:48:49;;;;;;;;;35.00;29.50;;;;;;;;4941679;28;48302;-92
2022/01/24 13:51:20;;;;;;;;;35.50;27.75;;;;;;;;4941391;28;45613;-92
2022/01/24 13:53:53;;;;;;;;;32.50;28.00;;;;;;;;4962038;28;45366;-92
2022/01/24 13:56:18;;;;;;;;;33.00;29.25;;;;;;;;4942983;28;45320;-93
2022/01/24 13:59:02;;;;;;;;;31.50;29.00;;;;;;;;4946768;28;48457;-94
2022/01/24 14:01:28;;;;;;;;;35.25;29.00;;;;;;;;4944680;28;45466;-93
2022/01/24 14:04:05;;;;;;;;;35.00;28.75;;;;;;;;4939018;28;45364;-94
2022/01/24 14:06:36;;;;;;;;;35.50;30.50;;;;;;;;4952670;28;45347;-93
2022/01/24 14:09:06;;;;;;;;;40.50;35.75;;;;;;;;4959910;28;48314;-93
2022/01/24 14:11:31;;;;;;;;;42.00;34.75;;;;;;;;4942329;28;46093;-94
2022/01/24 14:14:05;;;;;;;;;47.00;35.00;;;;;;;;4958870;28;45494;-93
2022/01/24 14:17:22;;;;;;;;;39.00;31.00;;;;;;;;4960081;28;45493;-93
2022/01/24 14:19:28;;;;;;;;;46.00;33.00;;;;;;;;4968084;28;46153;-93
2022/01/24 14:22:07;;;;;;;;;37.50;34.25;;;;;;;;4959204;28;45723;-93
2022/01/24 14:24:51;;;;;;;;;33.00;29.75;;;;;;;;4956769;28;45481;-93
2022/01/24 14:27:36;;;;;;;;;34.50;28.75;;;;;;;;4975416;28;45669;-93
2022/01/24 14:30:11;;;;;;;;;38.50;32.00;;;;;;;;4954694;28;47586;-93
2022/01/24 14:32:38;;;;;;;;;36.75;31.25;;;;;;;;4953422;28;45461;-94
2022/01/24 14:35:08;;;;;;;;;40.00;31.50;;;;;;;;4956725;28;45350;-93
2022/01/24 14:37:53;;;;;;;;;30.00;27.50;;;;;;;;4962428;28;45301;-93
2022/01/24 14:40:42;;;;;;;;;36.25;32.00;;;;;;;;4969939;28;47506;-93
2022/01/24 14:45:51;;;;;;;;;37.75;33.75;;;;;;;;4977735;28;45333;-92
2022/01/24 14:48:17;;;;;;;;;37.00;31.50;;;;;;;;4957362;28;45510;-92
2022/01/24 14:50:42;;;;;;;;;37.25;31.50;;;;;;;;4957882;28;47444;-91
2022/01/24 14:53:08;;;;;;;;;38.00;29.50;;;;;;;;4952508;28;45995;-93
2022/01/24 14:55:34;;;;;;;;;35.75;30.50;;;;;;;;4969211;28;45416;-93
2022/01/24 14:57:59;;;;;;;;;35.75;28.75;;;;;;;;4964170;28;46095;-93
2022/01/24 15:00:26;;;;;;;;;38.50;31.25;;;;;;;;4973775;28;47379;-92
2022/01/24 15:02:52;;;;;;;;;33.75;28.25;;;;;;;;4958116;28;45810;-92
2022/01/24 15:05:17;;;;;;;;;32.50;26.00;;;;;;;;4949416;28;45462;-93
2022/01/24 15:07:43;;;;;;;;;33.00;25.75;;;;;;;;4959493;28;45450;-93
2022/01/24 15:10:08;;;;;;;;;30.75;26.00;;;;;;;;4960236;28;48185;-93
2022/01/24 15:12:38;;;;;;;;;35.75;30.75;;;;;;;;4962626;28;45422;-95
2022/01/24 15:15:05;;;;;;;;;32.50;28.75;;;;;;;;4964256;28;45459;-93
2022/01/24 15:25:42;;;;;;;;;30.50;28.00;;;;;;;;4975776;28;45327;-93
2022/01/24 15:28:07;;;;;;;;;24.50;24.00;;;;;;;;4955262;28;45319;-93
2022/01/24 15:30:36;;;;;;;;;31.00;28.00;;;;;;;;4954805;28;47892;-92
2022/01/24 15:33:01;;;;;;;;;35.75;27.25;;;;;;;;4957643;28;45755;-94
2022/01/24 15:35:27;;;;;;;;;33.00;28.00;;;;;;;;4958637;28;45309;-93
2022/01/24 15:37:53;;;;;;;;;31.25;28.75;;;;;;;;4959550;28;45331;-93
2022/01/24 15:40:19;;;;;;;;;30.75;25.25;;;;;;;;4957369;28;47534;-92
2022/01/24 15:47:44;;;;;;;;;28.00;26.50;;;;;;;;4979959;28;45506;-93
2022/01/24 15:50:11;;;;;;;;;37.75;28.25;;;;;;;;4959957;28;47386;-93
2022/01/24 15:52:37;;;;;;;;;31.25;26.00;;;;;;;;4953933;28;45414;-93
2022/01/24 15:55:07;;;;;;;;;28.00;24.00;;;;;;;;4951627;28;45425;-93
2022/01/24 15:57:39;;;;;;;;;38.25;30.75;;;;;;;;4955110;28;45609;-90
2022/01/24 16:00:07;;;;;;;;;32.25;30.50;;;;;;;;4954016;28;48561;-96
2022/01/24 16:02:32;;;;;;;;;34.50;31.50;;;;;;;;4958108;28;45817;-93
2022/01/24 16:04:58;;;;;;;;;35.00;31.25;;;;;;;;4965631;28;46467;-93
2022/01/24 16:07:23;;;;;;;;;32.00;25.25;;;;;;;;4963279;28;45663;-93
2022/01/24 16:09:49;;;;;;;;;30.25;25.75;;;;;;;;4961156;28;47338;-92
2022/01/24 16:12:14;;;;;;;;;29.50;24.75;;;;;;;;4954155;28;45495;-95
2022/01/24 16:14:39;;;;;;;;;37.00;27.75;;;;;;;;4947681;28;45693;-91
2022/01/24 16:17:04;;;;;;;;;31.25;23.50;;;;;;;;4964324;28;45865;-93
2022/01/24 16:19:33;;;;;;;;;29.75;26.25;;;;;;;;4954391;28;48546;-94
2022/01/24 16:22:06;;;;;;;;;29.00;27.00;;;;;;;;4957789;28;45841;-92
2022/01/24 16:26:57;;;;;;;;;31.25;26.00;;;;;;;;4964854;28;45442;-92
2022/01/24 16:29:22;;;;;;;;;28.25;27.25;;;;;;;;4948700;28;46667;-94
2022/01/24 16:31:48;;;;;;;;;25.00;20.25;;;;;;;;4956399;28;45928;-94
2022/01/24 16:34:14;;;;;;;;;41.00;33.00;;;;;;;;4952318;28;45569;-93
2022/01/24 16:36:39;;;;;;;;;31.75;26.75;;;;;;;;4953026;28;45576;-92
2022/01/24 16:39:06;;;;;;;;;31.25;28.50;;;;;;;;4964410;28;47186;-91
2022/01/24 16:42:16;;;;;;;;;34.75;31.00;;;;;;;;4950722;28;45821;-91
2022/01/24 16:49:28;;;;;;;;;37.25;28.25;;;;;;;;4974385;28;46655;-92
2022/01/24 16:51:54;;;;;;;;;32.00;25.75;;;;;;;;4956133;28;45488;-91
2022/01/24 16:54:23;;;;;;;;;36.50;31.50;;;;;;;;4955581;28;45350;-91
2022/01/24 16:56:48;;;;;;;;;31.25;27.25;;;;;;;;4951413;28;45525;-90
2022/01/24 16:59:14;;;;;;;;;35.25;30.25;;;;;;;;4951939;28;47117;-92
2022/01/24 17:01:39;;;;;;;;;37.00;31.50;;;;;;;;4968401;28;45510;-93
2022/01/24 17:04:05;;;;;;;;;35.00;29.25;;;;;;;;4955494;28;45331;-94
2022/01/24 17:06:30;;;;;;;;;31.00;23.50;;;;;;;;4952177;28;45620;-93
2022/01/24 17:08:55;;;;;;;;;39.50;34.25;;;;;;;;4955775;28;47930;-93
2022/01/24 17:11:26;;;;;;;;;39.25;34.25;;;;;;;;4958431;28;45749;-94
2022/01/24 17:13:51;;;;;;;;;34.25;33.75;;;;;;;;4939527;28;45400;-92
2022/01/24 17:16:16;;;;;;;;;46.00;38.00;;;;;;;;4933773;28;45466;-94
2022/01/24 17:18:41;;;;;;;;;39.25;32.50;;;;;;;;4930582;28;47620;-94
2022/01/24 17:21:07;;;;;;;;;42.00;32.25;;;;;;;;4938222;28;45928;-94
2022/01/24 17:23:32;;;;;;;;;32.50;29.50;;;;;;;;4955119;28;45454;-94
2022/01/24 17:25:58;;;;;;;;;48.25;36.50;;;;;;;;4934673;28;45286;-94
2022/01/24 17:28:24;;;;;;;;;40.50;35.25;;;;;;;;4942602;28;47978;-93
2022/01/24 17:30:53;;;;;;;;;37.00;33.50;;;;;;;;4932591;28;46019;-93
2022/01/24 17:33:19;;;;;;;;;42.50;36.25;;;;;;;;4951925;28;45580;-93
2022/01/24 17:35:44;;;;;;;;;44.50;36.75;;;;;;;;4925239;28;45411;-92
2022/01/24 17:38:10;;;;;;;;;47.50;38.00;;;;;;;;4931821;28;48127;-94
2022/01/24 17:40:35;;;;;;;;;45.75;37.50;;;;;;;;4935203;28;45734;-93
2022/01/24 17:43:00;;;;;;;;;46.75;40.25;;;;;;;;4933556;28;45449;-93
2022/01/24 17:45:26;;;;;;;;;43.75;38.75;;;;;;;;4948792;28;45687;-94
2022/01/24 17:47:52;;;;;;;;;41.75;36.00;;;;;;;;4935448;28;47960;-95
2022/01/24 17:50:17;;;;;;;;;51.00;40.50;;;;;;;;4936429;28;45597;-94
2022/01/24 17:52:43;;;;;;;;;45.75;38.00;;;;;;;;4939146;28;45428;-94
2022/01/24 17:55:09;;;;;;;;;53.00;42.75;;;;;;;;4934728;28;45600;-94
2022/01/24 17:57:35;;;;;;;;;51.75;40.25;;;;;;;;4931661;28;47551;-95
2022/01/24 18:00:01;;;;;;;;;53.00;41.25;;;;;;;;4937652;28;45687;-94
2022/01/24 18:02:26;;;;;;;;;62.25;47.25;;;;;;;;4941098;28;45503;-95
2022/01/24 18:04:51;;;;;;;;;59.25;47.75;;;;;;;;4938138;28;45499;-94
2022/01/24 18:07:17;;;;;;;;;61.00;48.25;;;;;;;;4935196;28;47925;-95
2022/01/24 18:09:42;;;;;;;;;62.50;48.75;;;;;;;;4930851;28;45784;-94
2022/01/24 18:12:08;;;;;;;;;57.75;44.50;;;;;;;;4937992;28;45372;-93
2022/01/24 18:14:35;;;;;;;;;55.00;45.50;;;;;;;;4956039;28;45628;-95
2022/01/24 18:17:00;;;;;;;;;61.25;45.25;;;;;;;;4957377;28;47321;-96
2022/01/24 18:19:26;;;;;;;;;56.25;43.50;;;;;;;;4959732;28;45455;-92
2022/01/24 18:21:51;;;;;;;;;62.25;51.00;;;;;;;;4951363;28;45679;-93
2022/01/24 18:24:16;;;;;;;;;47.50;38.00;;;;;;;;4960681;28;45694;-94
2022/01/24 18:26:42;;;;;;;;;57.00;45.00;;;;;;;;4956160;28;47254;-93
2022/01/24 18:29:07;;;;;;;;;60.50;45.00;;;;;;;;4955901;28;45964;-93
2022/01/24 18:31:32;;;;;;;;;61.50;45.00;;;;;;;;4950585;28;45444;-94
2022/01/24 18:34:00;;;;;;;;;60.75;45.75;;;;;;;;4951773;28;45342;-94
2022/01/24 18:36:25;;;;;;;;;53.75;44.00;;;;;;;;4975995;28;45647;-90
2022/01/24 18:38:50;;;;;;;;;59.00;45.00;;;;;;;;4981804;28;45361;-91
2022/01/24 18:41:15;;;;;;;;;43.00;38.75;;;;;;;;4977297;28;45633;-89
2022/01/24 18:43:40;;;;;;;;;56.25;45.00;;;;;;;;4957767;28;45932;-93
2022/01/24 18:46:07;;;;;;;;;46.50;40.50;;;;;;;;4957129;28;47009;-92
2022/01/24 18:48:32;;;;;;;;;57.50;44.75;;;;;;;;4952836;28;45572;-93
2022/01/24 18:50:57;;;;;;;;;53.75;41.00;;;;;;;;4959090;28;45330;-91
2022/01/24 18:53:23;;;;;;;;;50.75;42.00;;;;;;;;4960884;28;45653;-93
2022/01/24 18:55:48;;;;;;;;;53.25;43.00;;;;;;;;4951417;28;47224;-92
2022/01/24 18:58:14;;;;;;;;;63.00;49.00;;;;;;;;4960205;28;45495;-93
2022/01/24 19:00:40;;;;;;;;;58.00;43.75;;;;;;;;4954655;28;45494;-91
2022/01/24 19:03:06;;;;;;;;;58.00;45.25;;;;;;;;4962811;28;45616;-88
2022/01/24 19:05:31;;;;;;;;;47.75;42.50;;;;;;;;4985806;28;45621;-90
2022/01/24 19:08:03;;;;;;;;;51.75;40.75;;;;;;;;4988576;28;44806;-91
2022/01/24 19:10:30;;;;;;;;;57.75;42.25;;;;;;;;4958196;28;45666;-90
2022/01/24 19:12:55;;;;;;;;;54.75;45.75;;;;;;;;4947524;28;45527;-91
2022/01/24 19:15:26;;;;;;;;;57.00;42.50;;;;;;;;4934951;28;48048;-90
2022/01/24 19:17:59;;;;;;;;;51.50;40.75;;;;;;;;4954023;28;45366;-90
2022/01/24 19:23:16;;;;;;;;;48.75;39.75;;;;;;;;4947913;28;45633;-94
2022/01/24 19:25:41;;;;;;;;;62.50;47.75;;;;;;;;4940494;28;47276;-92
2022/01/24 19:28:06;;;;;;;;;51.00;45.00;;;;;;;;4935635;28;45625;-93
2022/01/24 19:30:32;;;;;;;;;63.75;49.50;;;;;;;;4933368;28;45549;-92
2022/01/24 19:32:57;;;;;;;;;61.50;49.50;;;;;;;;4938686;28;45486;-91
2022/01/24 19:35:22;;;;;;;;;64.00;48.50;;;;;;;;4935080;28;47493;-93
2022/01/24 19:37:47;;;;;;;;;68.00;51.00;;;;;;;;4936436;28;45413;-91
2022/01/24 19:40:13;;;;;;;;;65.75;51.25;;;;;;;;4936323;28;45694;-90
2022/01/24 19:42:38;;;;;;;;;66.00;51.25;;;;;;;;4953146;28;45626;-92
2022/01/24 19:45:03;;;;;;;;;67.25;51.00;;;;;;;;4961153;28;46264;-90
2022/01/24 19:47:29;;;;;;;;;68.75;50.75;;;;;;;;4938281;28;45431;-91
2022/01/24 19:49:54;;;;;;;;;65.50;51.50;;;;;;;;4941250;28;45410;-90
2022/01/24 20:03:37;;;;;;;;;62.00;48.75;;;;;;;;5055164;23;46644;-96
2022/01/24 20:09:10;;;;;;;;;;;;;;;;;;;;;
2022/01/24 20:14:39;;;;;;;;;60.50;48.75;;;;;;;;4952206;28;45189;-96
2022/01/24 20:17:07;;;;;;;;;59.75;48.00;;;;;;;;4940987;28;47126;-94
2022/01/24 20:19:32;;;;;;;;;53.00;45.75;;;;;;;;4950040;28;45304;-94
2022/01/24 20:21:58;;;;;;;;;56.00;45.25;;;;;;;;4966314;23;46000;-95
2022/01/24 20:24:24;;;;;;;;;60.50;47.00;;;;;;;;4946186;28;45396;-95
2022/01/24 20:26:49;;;;;;;;;66.75;49.75;;;;;;;;4940979;28;47761;-95
2022/01/24 20:29:20;;;;;;;;;58.75;47.00;;;;;;;;4942365;28;45800;-94
2022/01/24 20:31:45;;;;;;;;;62.25;48.00;;;;;;;;4949442;28;45435;-94
2022/01/24 20:34:11;;;;;;;;;50.75;43.75;;;;;;;;4944758;28;45255;-94
2022/01/24 20:36:36;;;;;;;;;69.25;53.50;;;;;;;;4937777;28;47846;-94
2022/01/24 20:39:03;;;;;;;;;70.50;55.50;;;;;;;;4946003;28;45488;-95
2022/01/24 20:41:28;;;;;;;;;65.50;50.00;;;;;;;;4941810;28;45592;-94
2022/01/24 20:43:54;;;;;;;;;70.50;56.25;;;;;;;;4937678;28;45561;-95
2022/01/24 20:46:22;;;;;;;;;78.25;55.00;;;;;;;;4947068;28;47257;-95
2022/01/24 20:48:47;;;;;;;;;69.00;56.75;;;;;;;;4939203;28;45539;-94
2022/01/24 20:51:15;;;;;;;;;69.25;55.00;;;;;;;;4946193;28;45567;-95
2022/01/24 20:53:41;;;;;;;;;72.50;54.50;;;;;;;;4946793;28;45909;-95
2022/01/24 20:56:06;;;;;;;;;60.50;47.25;;;;;;;;4945449;28;51326;-94
2022/01/24 20:58:31;;;;;;;;;67.50;53.00;;;;;;;;4942900;28;45434;-95
2022/01/24 21:01:06;;;;;;;;;65.50;52.75;;;;;;;;4931598;28;44849;-93
2022/01/24 21:03:36;;;;;;;;;63.75;53.75;;;;;;;;5034132;23;45304;-93
2022/01/24 21:06:03;;;;;;;;;71.00;53.25;;;;;;;;4962101;28;47943;-94
2022/01/24 21:08:31;;;;;;;;;74.50;55.00;;;;;;;;4942383;28;46031;-94
2022/01/24 21:11:04;;;;;;;;;78.75;58.50;;;;;;;;4933772;28;45559;-93
2022/01/24 21:13:43;;;;;;;;;73.50;57.00;;;;;;;;4945494;28;45493;-94
2022/01/24 21:16:08;;;;;;;;;69.00;53.25;;;;;;;;4961927;28;47453;-94
2022/01/24 21:19:07;;;;;;;;;69.75;56.75;;;;;;;;4952025;28;45611;-93
2022/01/24 21:21:48;;;;;;;;;75.50;58.50;;;;;;;;4892134;29;45472;-95
2022/01/24 21:24:16;;;;;;;;;73.00;55.75;;;;;;;;4879372;29;45451;-94
2022/01/24 21:27:01;;;;;;;;;77.00;59.00;;;;;;;;4906988;28;46866;-95
2022/01/24 21:29:29;;;;;;;;;79.50;61.25;;;;;;;;4898663;29;45508;-94
2022/01/24 21:31:55;;;;;;;;;80.75;62.00;;;;;;;;4880690;29;45841;-94
2022/01/24 21:34:37;;;;;;;;;67.50;53.25;;;;;;;;4874147;29;45693;-95
2022/01/24 21:37:05;;;;;;;;;70.00;55.75;;;;;;;;4883283;29;47193;-95
2022/01/24 21:39:30;;;;;;;;;70.25;52.75;;;;;;;;4884118;29;45314;-95
2022/01/24 21:41:57;;;;;;;;;71.75;53.00;;;;;;;;4884962;29;45313;-95
2022/01/24 21:44:23;;;;;;;;;71.50;54.50;;;;;;;;4869732;29;45562;-96
2022/01/24 21:47:11;;;;;;;;;72.00;58.00;;;;;;;;4893724;29;47067;-96
2022/01/24 21:49:39;;;;;;;;;77.50;60.75;;;;;;;;4901314;29;45381;-96
2022/01/24 21:52:05;;;;;;;;;77.25;54.75;;;;;;;;4905128;28;45548;-95
2022/01/24 21:54:30;;;;;;;;;72.00;58.00;;;;;;;;4880811;29;45438;-95
2022/01/24 21:56:57;;;;;;;;;68.75;56.25;;;;;;;;4919929;28;46919;-95
2022/01/24 21:59:40;;;;;;;;;;;;;;;;;;;;;
2022/01/24 22:02:15;;;;;;;;;75.00;60.00;;;;;;;;4971797;28;66806;-95
2022/01/24 22:04:45;;;;;;;;;78.50;58.00;;;;;;;;4961332;28;45463;-96
2022/01/24 22:08:43;;;;;;;;;80.25;58.00;;;;;;;;4958099;28;47767;-96
2022/01/24 22:10:27;;;;;;;;;74.00;54.00;;;;;;;;4977898;28;45493;-96
2022/01/24 22:12:58;;;;;;;;;74.00;57.00;;;;;;;;4958118;28;45573;-95
2022/01/24 22:15:43;;;;;;;;;69.00;56.50;;;;;;;;4961455;28;45269;-95
2022/01/24 22:18:16;;;;;;;;;61.25;48.00;;;;;;;;4958984;28;47915;-95
2022/01/24 22:20:44;;;;;;;;;72.75;57.25;;;;;;;;4976880;28;45805;-94
2022/01/24 22:23:31;;;;;;;;;69.25;54.00;;;;;;;;4965315;28;45299;-95
2022/01/24 22:26:08;;;;;;;;;67.50;51.50;;;;;;;;4967713;28;45653;-94
2022/01/24 22:28:38;;;;;;;;;72.00;57.25;;;;;;;;4967889;28;47024;-95
2022/01/24 22:31:06;;;;;;;;;70.25;56.00;;;;;;;;4971587;28;45364;-95
2022/01/24 22:33:47;;;;;;;;;60.50;48.25;;;;;;;;4949375;28;45395;-95
2022/01/24 22:36:21;;;;;;;;;70.00;54.50;;;;;;;;5404028;23;46055;-95
2022/01/24 22:38:52;;;;;;;;;72.25;55.75;;;;;;;;4923633;28;47054;-96
2022/01/24 22:41:41;;;;;;;;;73.50;56.50;;;;;;;;4946907;28;45425;-95
2022/01/24 22:44:09;;;;;;;;;72.50;55.25;;;;;;;;4959886;28;46364;-95
2022/01/24 22:46:42;;;;;;;;;69.50;55.75;;;;;;;;4936208;28;45479;-95
2022/01/24 22:49:10;;;;;;;;;69.00;54.50;;;;;;;;4932279;28;46578;-95